メインページ
METAR-TAF:

METAR-TAF

空港 :

フォール=ド=フランス, マルティニーク

マルティニーク・エメ・セゼール国際空港

緯度: 14-36N, 経度: 061-00W, 海抜: 5m

現時点の気象観測

当レポートは11分前の00:30(UTC)に作成
の風 4kt、北東から東/南東の間で変化する
気温 23°C
湿度 89%
気圧 1013 hPa
視程10km以上
高度5800ftの雲は散在している

METAR: TFFF 120030Z AUTO 09004KT 050V120 9999 SCT058 23/21 Q1013 NOSIG

時間: 20:41 (00:41 UTC)

予報

当レポートは1時間41分前の23:00(UTC)に作成
予報は12日の 00時(UTC)から 12日の 24時(UTC)まで有効
変向風 4kt
視程10km以上
1,500メートル以下は雲なし、積乱雲なし
12日の 12時(UTC)から 12日の 14時(UTC)まで徐々に
の風 6kt

TAF: TFFF 112300Z 1200/1224 VRB04KT CAVOK BECMG 1212/1214 17006KT

4,000以上の空港の気象観測と天気予報(METAR報とTAF報)

利用可能な観測所は地図上に黄色い丸と赤い丸で示す。

丸の上にカーソルを重ねると観測所名を参照できる。

次にクリックすると気象観測と天気予報を参照できる。

マップの切り替え:黒色「×」印の緑ボタンをクリックして拡大、「-」印の緑ボタンをクリックして縮小、緑色の三角印をクリックして隣りの地図に切り替え


METAR-TAF: